createdAt,value
2023-02-09T00:00:17.269Z,15.65
2023-02-09T00:02:47.821Z,14.23
2023-02-09T00:05:26.522Z,14.55
2023-02-09T00:08:07.807Z,14.68
2023-02-09T00:10:35.102Z,12.52
2023-02-09T00:13:20.815Z,14.38
2023-02-09T00:16:07.187Z,18.55
2023-02-09T00:18:37.238Z,16.08
2023-02-09T00:23:52.591Z,19.35
2023-02-09T00:26:30.883Z,22.00
2023-02-09T00:28:58.944Z,15.70
2023-02-09T00:31:29.592Z,17.83
2023-02-09T00:33:56.886Z,19.63
2023-02-09T00:36:24.133Z,14.02
2023-02-09T00:38:51.430Z,13.50
2023-02-09T00:41:18.756Z,14.35
2023-02-09T00:43:46.049Z,15.63
2023-02-09T00:46:13.288Z,16.35
2023-02-09T00:48:42.962Z,17.20
2023-02-09T00:51:10.245Z,17.65
2023-02-09T00:53:37.581Z,18.83
2023-02-09T00:56:05.138Z,18.75
2023-02-09T00:58:34.650Z,19.65
2023-02-09T01:01:04.468Z,20.97
2023-02-09T01:03:34.309Z,17.42
2023-02-09T01:06:01.767Z,15.85
2023-02-09T01:08:29.079Z,14.55
2023-02-09T01:10:56.284Z,16.33
2023-02-09T01:13:23.887Z,16.67
2023-02-09T01:15:51.850Z,17.30
2023-02-09T01:18:19.120Z,13.90
2023-02-09T01:20:48.235Z,16.23
2023-02-09T01:23:15.473Z,15.93
2023-02-09T01:25:42.677Z,16.27
2023-02-09T01:28:10.010Z,17.05
2023-02-09T01:30:37.284Z,14.57
2023-02-09T01:33:04.561Z,13.77
2023-02-09T01:35:32.396Z,17.20
2023-02-09T01:37:59.607Z,19.02
2023-02-09T01:40:26.681Z,16.77
2023-02-09T01:43:07.621Z,18.48
2023-02-09T01:45:43.297Z,18.00
2023-02-09T01:48:11.006Z,20.10
2023-02-09T01:50:43.319Z,15.63
2023-02-09T01:53:18.613Z,16.45
2023-02-09T01:55:54.286Z,20.23
2023-02-09T01:58:22.971Z,19.23
2023-02-09T02:00:55.495Z,18.00
2023-02-09T02:03:25.689Z,16.42
2023-02-09T02:05:59.818Z,18.30
2023-02-09T02:08:44.908Z,25.45
2023-02-09T02:11:19.268Z,18.25
2023-02-09T02:13:46.499Z,22.95
2023-02-09T02:16:59.380Z,25.45
2023-02-09T02:19:48.335Z,24.35
2023-02-09T02:22:44.755Z,25.77
2023-02-09T02:25:50.768Z,18.30
2023-02-09T02:28:35.329Z,19.15
2023-02-09T02:31:24.745Z,17.27
2023-02-09T02:34:21.398Z,14.47
2023-02-09T02:37:16.413Z,15.35
2023-02-09T02:39:49.396Z,15.10
2023-02-09T02:42:42.074Z,16.45
2023-02-09T02:45:40.016Z,14.10
2023-02-09T02:48:41.004Z,10.48
2023-02-09T02:51:14.766Z,15.10
2023-02-09T02:53:48.918Z,13.40
2023-02-09T02:56:28.024Z,12.73
2023-02-09T02:59:03.515Z,13.75
2023-02-09T03:01:39.897Z,15.65
2023-02-09T03:04:13.899Z,13.35
2023-02-09T03:06:41.245Z,13.68
2023-02-09T03:09:18.744Z,12.95
2023-02-09T03:11:51.489Z,12.50
2023-02-09T03:14:34.552Z,20.42
2023-02-09T03:17:19.455Z,14.63
2023-02-09T03:19:48.465Z,11.70
2023-02-09T03:22:28.705Z,14.52
2023-02-09T03:25:07.772Z,16.85
2023-02-09T03:28:00.259Z,13.07
2023-02-09T03:30:27.694Z,17.38
2023-02-09T03:32:56.464Z,18.35
2023-02-09T03:35:31.538Z,14.00
2023-02-09T03:37:58.699Z,12.07
2023-02-09T03:40:25.855Z,13.05
2023-02-09T03:42:53.057Z,13.48
2023-02-09T03:45:20.182Z,11.35
2023-02-09T03:47:47.557Z,10.35
2023-02-09T03:50:14.881Z,13.38
2023-02-09T03:52:42.184Z,13.52
2023-02-09T03:55:09.442Z,12.77
2023-02-09T03:57:36.602Z,12.65
2023-02-09T04:00:04.298Z,11.63
2023-02-09T04:02:34.174Z,12.05
2023-02-09T04:05:05.764Z,14.18
2023-02-09T04:07:33.358Z,14.95
2023-02-09T04:10:00.532Z,14.05
2023-02-09T04:12:27.910Z,14.27
2023-02-09T04:14:55.110Z,12.05
2023-02-09T04:17:22.309Z,16.63
2023-02-09T04:19:49.562Z,15.63
2023-02-09T04:22:16.770Z,14.00
2023-02-09T04:24:44.199Z,15.50
2023-02-09T04:27:11.866Z,20.85
2023-02-09T04:29:39.066Z,18.88
2023-02-09T04:32:06.288Z,26.90
2023-02-09T04:34:36.823Z,19.08
2023-02-09T04:37:04.095Z,24.67
2023-02-09T04:39:31.289Z,21.15
2023-02-09T04:41:58.496Z,19.08
2023-02-09T04:44:29.026Z,26.85
2023-02-09T04:46:56.249Z,20.80
2023-02-09T04:49:23.566Z,18.73
2023-02-09T04:51:50.774Z,22.02
2023-02-09T04:54:17.921Z,22.77
2023-02-09T04:56:46.356Z,25.52
2023-02-09T04:59:32.086Z,22.10
2023-02-09T05:01:59.442Z,18.58
2023-02-09T05:04:26.944Z,20.40
2023-02-09T05:06:54.440Z,17.98
2023-02-09T05:09:21.666Z,18.90
2023-02-09T05:11:48.857Z,26.15
2023-02-09T05:14:16.211Z,22.70
2023-02-09T05:16:43.535Z,18.50
2023-02-09T05:19:34.888Z,17.73
2023-02-09T05:22:02.247Z,18.98
2023-02-09T05:24:29.540Z,18.45
2023-02-09T05:26:56.798Z,18.73
2023-02-09T05:29:24.171Z,17.33
2023-02-09T05:31:51.314Z,17.48
2023-02-09T05:34:18.649Z,17.58
2023-02-09T05:36:46.105Z,23.52
2023-02-09T05:39:13.404Z,31.92
2023-02-09T05:41:59.195Z,25.67
2023-02-09T05:44:31.980Z,17.88
2023-02-09T05:47:20.486Z,18.40
2023-02-09T05:50:00.436Z,17.00
2023-02-09T05:52:28.089Z,18.85
2023-02-09T05:54:55.308Z,24.75
2023-02-09T05:57:36.265Z,22.20
2023-02-09T06:00:09.513Z,21.20
2023-02-09T06:02:37.140Z,21.02
2023-02-09T06:05:04.613Z,20.45
2023-02-09T06:07:34.351Z,21.73
2023-02-09T06:10:08.723Z,27.88
2023-02-09T06:12:41.504Z,18.77
2023-02-09T06:15:10.999Z,22.98
2023-02-09T06:17:38.488Z,19.35
2023-02-09T06:20:08.666Z,29.27
2023-02-09T06:22:38.899Z,45.70
2023-02-09T06:27:36.857Z,22.88
2023-02-09T06:30:06.231Z,20.77
2023-02-09T06:32:37.637Z,24.02
2023-02-09T06:35:06.077Z,20.45
2023-02-09T06:37:33.315Z,23.92
2023-02-09T06:40:08.879Z,23.23
2023-02-09T06:42:46.072Z,20.45
2023-02-09T06:45:22.275Z,19.98
2023-02-09T06:47:49.576Z,18.13
2023-02-09T06:50:22.714Z,17.40
2023-02-09T06:52:55.013Z,110.43
2023-02-09T06:55:22.310Z,238.00
2023-02-09T06:57:54.142Z,105.43
2023-02-09T07:00:21.998Z,47.58
2023-02-09T07:02:49.539Z,27.73
2023-02-09T07:05:18.004Z,21.60
2023-02-09T07:07:46.321Z,24.25
2023-02-09T07:10:17.252Z,23.20
2023-02-09T07:12:44.869Z,24.45
2023-02-09T07:15:17.427Z,26.15
2023-02-09T07:17:46.651Z,19.27
2023-02-09T07:20:13.925Z,23.15
2023-02-09T07:22:41.410Z,20.58
2023-02-09T07:25:10.777Z,22.48
2023-02-09T07:27:40.145Z,24.40
2023-02-09T07:30:10.305Z,18.50
2023-02-09T07:32:39.623Z,17.48
2023-02-09T07:35:07.146Z,24.05
2023-02-09T07:37:36.309Z,19.73
2023-02-09T07:40:03.869Z,23.80
2023-02-09T07:42:31.084Z,23.02
2023-02-09T07:45:00.727Z,22.07
2023-02-09T07:47:27.893Z,23.73
2023-02-09T07:49:55.218Z,31.42
2023-02-09T07:52:22.542Z,43.65
2023-02-09T07:54:51.784Z,42.03
2023-02-09T07:57:19.116Z,44.83
2023-02-09T07:59:48.761Z,47.85
2023-02-09T08:02:27.385Z,40.63
2023-02-09T08:04:59.581Z,42.10
2023-02-09T08:07:28.388Z,38.95
2023-02-09T08:09:56.548Z,33.88
2023-02-09T08:12:48.649Z,32.03
2023-02-09T08:15:19.205Z,25.40
2023-02-09T08:17:52.137Z,30.83
2023-02-09T08:20:24.512Z,40.30
2023-02-09T08:23:07.040Z,79.43
2023-02-09T08:25:38.193Z,30.70
2023-02-09T08:28:09.760Z,28.45
2023-02-09T08:30:37.515Z,25.15
2023-02-09T08:33:04.935Z,25.83
2023-02-09T08:35:35.331Z,25.38
2023-02-09T08:40:31.607Z,24.90
2023-02-09T08:42:59.168Z,27.30
2023-02-09T08:45:26.563Z,24.40
2023-02-09T08:47:53.844Z,26.90
2023-02-09T08:50:21.062Z,32.35
2023-02-09T08:52:59.591Z,29.60
2023-02-09T08:55:41.851Z,38.78
2023-02-09T08:58:19.737Z,30.13
2023-02-09T09:00:51.304Z,31.38
2023-02-09T09:03:21.428Z,36.92
2023-02-09T09:05:48.907Z,35.97
2023-02-09T09:08:16.476Z,34.42
2023-02-09T09:10:43.692Z,30.90
2023-02-09T09:13:11.053Z,33.00
2023-02-09T09:15:43.806Z,27.80
2023-02-09T09:18:12.089Z,32.60
2023-02-09T09:20:42.895Z,27.88
2023-02-09T09:23:11.170Z,30.45
2023-02-09T09:25:40.171Z,28.10
2023-02-09T09:28:08.167Z,23.80
2023-02-09T09:30:37.472Z,26.50
2023-02-09T09:33:04.943Z,30.70
2023-02-09T09:35:33.662Z,30.25
2023-02-09T09:38:01.837Z,23.70
2023-02-09T09:40:33.615Z,31.02
2023-02-09T09:43:08.086Z,24.08
2023-02-09T09:45:38.962Z,25.50
2023-02-09T09:48:25.074Z,24.20
2023-02-09T09:51:02.241Z,22.70
2023-02-09T09:53:36.364Z,23.42
2023-02-09T09:56:07.806Z,21.27
2023-02-09T09:58:40.201Z,20.00
2023-02-09T10:01:16.184Z,20.00
2023-02-09T10:03:43.933Z,18.90
2023-02-09T10:06:20.116Z,15.55
2023-02-09T10:09:04.374Z,15.65
2023-02-09T10:11:43.593Z,16.35
2023-02-09T10:14:10.977Z,19.70
2023-02-09T10:16:38.699Z,20.23
2023-02-09T10:19:18.153Z,22.08
2023-02-09T10:21:45.409Z,18.33
2023-02-09T10:24:38.611Z,20.20
2023-02-09T10:27:45.602Z,19.13
2023-02-09T10:30:27.029Z,21.02
2023-02-09T10:32:59.794Z,20.02
2023-02-09T10:35:34.159Z,15.80
2023-02-09T10:38:04.189Z,20.02
2023-02-09T10:40:35.497Z,15.35
2023-02-09T10:43:29.016Z,15.40
2023-02-09T10:46:02.667Z,21.23
2023-02-09T10:48:41.499Z,14.50
2023-02-09T10:51:15.692Z,15.35
2023-02-09T10:54:12.027Z,18.25
2023-02-09T10:56:53.406Z,18.52
2023-02-09T10:59:23.474Z,14.50
2023-02-09T11:02:03.430Z,12.52
2023-02-09T11:04:39.403Z,13.65
2023-02-09T11:07:22.906Z,15.85
2023-02-09T11:09:53.391Z,13.32
2023-02-09T11:14:53.253Z,12.20
2023-02-09T11:17:44.624Z,13.10
2023-02-09T11:20:23.729Z,13.77
2023-02-09T11:23:04.964Z,13.93
2023-02-09T11:25:53.020Z,12.88
2023-02-09T11:28:48.159Z,17.55
2023-02-09T11:31:40.053Z,15.90
2023-02-09T11:34:56.174Z,14.85
2023-02-09T11:37:37.458Z,16.88
2023-02-09T11:40:20.193Z,14.32
2023-02-09T11:43:15.033Z,16.30
2023-02-09T11:45:51.094Z,14.18
2023-02-09T11:48:45.866Z,11.93
2023-02-09T11:51:22.549Z,13.25
2023-02-09T11:53:58.410Z,12.73
2023-02-09T11:56:28.274Z,13.18
2023-02-09T11:59:09.351Z,13.43
2023-02-09T12:01:50.161Z,12.02
2023-02-09T12:04:27.548Z,12.52
2023-02-09T12:07:00.255Z,12.45
2023-02-09T12:09:46.297Z,12.95
2023-02-09T12:12:31.596Z,10.38
2023-02-09T12:15:47.962Z,11.90
2023-02-09T12:18:29.234Z,11.95
2023-02-09T12:21:01.552Z,12.80
2023-02-09T12:23:37.540Z,13.13
2023-02-09T12:26:15.103Z,11.63
2023-02-09T12:28:48.091Z,10.77
2023-02-09T12:31:25.000Z,10.32
2023-02-09T12:33:58.176Z,11.18
2023-02-09T12:36:35.743Z,13.18
2023-02-09T12:39:33.899Z,12.20
2023-02-09T12:42:04.194Z,12.63
2023-02-09T12:44:31.507Z,11.57
2023-02-09T12:46:58.814Z,12.73
2023-02-09T12:49:28.986Z,10.75
2023-02-09T12:52:16.473Z,11.18
2023-02-09T12:55:17.926Z,11.02
2023-02-09T12:57:52.223Z,10.15
2023-02-09T13:00:19.470Z,11.05
2023-02-09T13:02:50.216Z,9.68
2023-02-09T13:05:25.047Z,10.80
2023-02-09T13:08:20.034Z,9.65
2023-02-09T13:11:19.306Z,10.35
2023-02-09T13:14:09.285Z,10.55
2023-02-09T13:17:09.692Z,9.77
2023-02-09T13:19:47.943Z,11.15
2023-02-09T13:22:44.052Z,13.55
2023-02-09T13:25:27.823Z,10.68
2023-02-09T13:28:11.768Z,10.32
2023-02-09T13:30:39.809Z,11.75
2023-02-09T13:33:26.209Z,11.32
2023-02-09T13:36:28.099Z,10.25
2023-02-09T13:38:55.772Z,8.77
2023-02-09T13:41:36.186Z,9.57
2023-02-09T13:46:35.585Z,10.40
2023-02-09T13:49:19.907Z,11.63
2023-02-09T13:52:18.847Z,12.02
2023-02-09T13:54:49.048Z,10.13
2023-02-09T13:58:00.503Z,11.75
2023-02-09T14:00:40.970Z,10.48
2023-02-09T14:03:58.508Z,10.30
2023-02-09T14:07:03.041Z,10.82
2023-02-09T14:09:47.605Z,9.18
2023-02-09T14:12:53.016Z,8.95
2023-02-09T14:15:52.818Z,9.40
2023-02-09T14:18:51.197Z,9.35
2023-02-09T14:21:54.137Z,9.23
2023-02-09T14:24:50.608Z,9.05
2023-02-09T14:27:47.989Z,11.07
2023-02-09T14:30:38.802Z,12.77
2023-02-09T14:33:31.306Z,9.90
2023-02-09T14:39:21.401Z,9.23
2023-02-09T14:42:15.437Z,10.15
2023-02-09T14:44:58.717Z,8.95
2023-02-09T14:47:40.213Z,9.60
2023-02-09T14:50:14.481Z,11.15
2023-02-09T14:52:51.478Z,9.43
2023-02-09T14:55:25.728Z,11.30
2023-02-09T14:57:53.432Z,10.07
2023-02-09T15:00:25.748Z,10.40
2023-02-09T15:02:54.057Z,10.20
2023-02-09T15:05:22.834Z,11.13
2023-02-09T15:08:03.137Z,11.35
2023-02-09T15:10:46.092Z,9.20
2023-02-09T15:13:15.763Z,10.30
2023-02-09T15:15:46.795Z,11.55
2023-02-09T15:18:26.648Z,11.32
2023-02-09T15:20:56.062Z,9.32
2023-02-09T15:23:24.408Z,9.05
2023-02-09T15:25:51.686Z,11.15
2023-02-09T15:28:28.755Z,10.95
2023-02-09T15:31:00.041Z,12.27
2023-02-09T15:33:29.416Z,10.70
2023-02-09T15:36:00.456Z,11.05
2023-02-09T15:38:30.885Z,11.35
2023-02-09T15:41:16.906Z,13.75
2023-02-09T15:44:02.825Z,11.90
2023-02-09T15:46:48.714Z,13.88
2023-02-09T15:49:19.513Z,16.08
2023-02-09T15:51:47.142Z,13.55
2023-02-09T15:54:19.922Z,15.75
2023-02-09T15:56:54.841Z,14.55
2023-02-09T16:02:36.161Z,20.02
2023-02-09T16:05:18.622Z,20.88
2023-02-09T16:11:24.869Z,106.90
2023-02-09T16:14:44.315Z,57.05
2023-02-09T16:17:01.971Z,24.27
2023-02-09T16:19:43.957Z,21.92
2023-02-09T16:22:30.804Z,26.63
2023-02-09T16:25:05.260Z,27.35
2023-02-09T16:27:33.710Z,23.75
2023-02-09T16:30:25.697Z,20.15
2023-02-09T16:33:05.264Z,19.73
2023-02-09T16:35:37.319Z,23.65
2023-02-09T16:38:23.498Z,21.63
2023-02-09T16:40:51.626Z,20.40
2023-02-09T16:43:19.879Z,21.23
2023-02-09T16:46:03.631Z,25.05
2023-02-09T16:48:34.757Z,22.13
2023-02-09T16:51:06.365Z,29.00
2023-02-09T16:57:45.890Z,34.45
2023-02-09T17:03:36.764Z,31.70
2023-02-09T17:06:04.189Z,26.83
2023-02-09T17:08:34.906Z,27.48
2023-02-09T17:11:06.255Z,29.75
2023-02-09T17:13:36.920Z,47.95
2023-02-09T17:16:07.628Z,53.92
2023-02-09T17:18:42.457Z,54.78
2023-02-09T17:21:16.878Z,52.75
2023-02-09T17:23:44.259Z,39.38
2023-02-09T17:26:12.547Z,30.17
2023-02-09T17:28:45.403Z,27.80
2023-02-09T17:31:19.885Z,42.08
2023-02-09T17:33:55.554Z,35.60
2023-02-09T17:36:27.679Z,38.67
2023-02-09T17:38:59.597Z,34.72
2023-02-09T17:41:40.825Z,42.70
2023-02-09T17:44:29.038Z,31.33
2023-02-09T17:47:03.662Z,33.13
2023-02-09T17:49:30.954Z,44.45
2023-02-09T17:51:58.565Z,35.95
2023-02-09T17:54:30.186Z,34.90
2023-02-09T17:56:59.877Z,40.75
2023-02-09T17:59:29.375Z,31.45
2023-02-09T18:01:56.639Z,33.05
2023-02-09T18:04:31.431Z,35.78
2023-02-09T18:06:59.811Z,32.22
2023-02-09T18:09:29.636Z,27.45
2023-02-09T18:12:19.025Z,28.08
2023-02-09T18:14:47.721Z,28.65
2023-02-09T18:17:19.056Z,33.38
2023-02-09T18:19:48.340Z,34.50
2023-02-09T18:22:35.849Z,38.20
2023-02-09T18:25:32.353Z,30.88
2023-02-09T18:28:05.347Z,37.30
2023-02-09T18:30:49.232Z,36.45
2023-02-09T18:33:22.951Z,45.35
2023-02-09T18:35:51.352Z,41.38
2023-02-09T18:38:35.425Z,74.13
2023-02-09T18:41:07.137Z,38.10
2023-02-09T18:43:34.450Z,37.05
2023-02-09T18:46:03.058Z,36.42
2023-02-09T18:48:33.632Z,32.83
2023-02-09T18:53:33.711Z,35.25
2023-02-09T18:56:04.882Z,39.38
2023-02-09T18:58:36.738Z,42.22
2023-02-09T19:01:18.930Z,39.35
2023-02-09T19:04:01.623Z,49.90
2023-02-09T19:06:33.771Z,53.55
2023-02-09T19:09:03.154Z,54.88
2023-02-09T19:11:33.296Z,58.80
2023-02-09T19:14:29.500Z,55.88
2023-02-09T19:16:56.719Z,54.50
2023-02-09T19:19:59.881Z,56.53
2023-02-09T19:22:35.072Z,47.88
2023-02-09T19:25:04.688Z,47.08
2023-02-09T19:27:31.977Z,44.70
2023-02-09T19:30:01.745Z,45.83
2023-02-09T19:32:29.217Z,70.13
2023-02-09T19:37:28.839Z,46.08
2023-02-09T19:40:17.621Z,46.78
2023-02-09T19:42:44.973Z,47.80
2023-02-09T19:48:00.586Z,54.05
2023-02-09T19:50:28.081Z,48.33
2023-02-09T19:53:00.365Z,49.75
2023-02-09T19:55:28.131Z,39.47
2023-02-09T19:57:55.935Z,49.92
2023-02-09T20:00:29.837Z,42.88
2023-02-09T20:03:00.122Z,45.38
2023-02-09T20:05:27.983Z,39.90
2023-02-09T20:08:07.773Z,44.30
2023-02-09T20:10:35.666Z,61.15
2023-02-09T20:13:27.043Z,51.00
2023-02-09T20:16:19.129Z,52.08
2023-02-09T20:18:56.792Z,49.53
2023-02-09T20:21:29.565Z,65.07
2023-02-09T20:23:59.844Z,54.92
2023-02-09T20:26:38.664Z,62.40
2023-02-09T20:29:12.635Z,49.00
2023-02-09T20:31:48.701Z,51.30
2023-02-09T20:34:18.577Z,48.83
2023-02-09T20:36:49.969Z,52.13
2023-02-09T20:39:18.021Z,65.15
2023-02-09T20:42:18.316Z,58.92
2023-02-09T20:45:13.592Z,52.05
2023-02-09T20:47:42.159Z,63.15
2023-02-09T20:50:20.370Z,74.88
2023-02-09T20:52:48.459Z,65.63
2023-02-09T20:55:16.265Z,74.53
2023-02-09T20:57:44.182Z,71.05
2023-02-09T21:00:12.028Z,60.42
2023-02-09T21:02:41.530Z,71.90
2023-02-09T21:05:12.235Z,70.35
2023-02-09T21:07:39.564Z,66.15
2023-02-09T21:10:11.568Z,64.35
2023-02-09T21:12:41.918Z,78.05
2023-02-09T21:15:15.628Z,170.27
2023-02-09T21:17:55.470Z,111.63
2023-02-09T21:20:22.986Z,74.05
2023-02-09T21:22:51.105Z,74.75
2023-02-09T21:25:20.761Z,62.38
2023-02-09T21:27:50.794Z,57.28
2023-02-09T21:30:18.357Z,61.30
2023-02-09T21:32:45.686Z,57.72
2023-02-09T21:35:15.956Z,62.30
2023-02-09T21:37:43.545Z,61.17
2023-02-09T21:40:16.445Z,61.15
2023-02-09T21:42:51.880Z,57.20
2023-02-09T21:45:19.264Z,58.10
2023-02-09T21:47:49.217Z,55.35
2023-02-09T21:50:21.586Z,66.30
2023-02-09T21:52:50.398Z,60.83
2023-02-09T21:55:18.543Z,58.38
2023-02-09T21:57:49.154Z,55.45
2023-02-09T22:00:26.401Z,54.75
2023-02-09T22:02:55.192Z,57.00
2023-02-09T22:05:24.401Z,54.00
2023-02-09T22:07:57.640Z,61.78
2023-02-09T22:10:24.832Z,60.95
2023-02-09T22:12:54.488Z,68.65
2023-02-09T22:15:24.621Z,75.70
2023-02-09T22:18:05.308Z,72.47
2023-02-09T22:20:33.844Z,67.75
2023-02-09T22:23:01.669Z,74.75
2023-02-09T22:25:34.026Z,60.95
2023-02-09T22:28:01.500Z,57.05
2023-02-09T22:30:32.550Z,58.63
2023-02-09T22:33:06.016Z,57.10
2023-02-09T22:35:34.270Z,58.45
2023-02-09T22:38:06.039Z,63.80
2023-02-09T22:40:35.471Z,59.63
2023-02-09T22:43:02.725Z,54.60
2023-02-09T22:45:33.842Z,54.50
2023-02-09T22:48:01.134Z,59.08
2023-02-09T22:50:28.398Z,54.80
2023-02-09T22:52:55.657Z,58.03
2023-02-09T22:55:26.006Z,69.53
2023-02-09T22:57:57.745Z,58.45
2023-02-09T23:00:27.608Z,54.33
2023-02-09T23:02:57.750Z,66.13
2023-02-09T23:05:26.247Z,51.70
2023-02-09T23:07:53.625Z,70.05
2023-02-09T23:10:22.590Z,82.32
2023-02-09T23:12:49.820Z,76.78
2023-02-09T23:15:17.230Z,80.03
2023-02-09T23:17:48.363Z,77.13
2023-02-09T23:20:16.162Z,75.90
2023-02-09T23:22:44.359Z,76.72
2023-02-09T23:25:14.126Z,79.00
2023-02-09T23:27:43.101Z,79.53
2023-02-09T23:30:16.565Z,67.15
2023-02-09T23:32:43.869Z,85.75
2023-02-09T23:35:15.758Z,61.60
2023-02-09T23:37:43.378Z,69.18
2023-02-09T23:40:11.539Z,58.10
2023-02-09T23:42:38.723Z,60.70
2023-02-09T23:45:11.744Z,52.88
2023-02-09T23:47:41.864Z,53.92
2023-02-09T23:50:09.188Z,56.10
2023-02-09T23:52:42.756Z,46.90
2023-02-09T23:55:11.250Z,51.00
2023-02-09T23:57:38.558Z,48.80
